Latest Weather Observations for Batchelor

IDD60801

Issued at 8:01 pm CST Sunday 16 December 2018 (issued every 10 minutes, with the page automatically refreshed every 10 minutes)

About weather observations | Map of weather stations | Latest weather observations for NT | Other Formats
Station Details ID: 014272 Name: BATCHELOR AIRPORT Lat: -13.05 Lon: 131.03 Height: 104.0 m
Data from the previous 72 hours. | See also: Recent months at Batchelor
Date/Time
CST
Temp
°C
App
Temp
°C
Dew
Point
°C
Rel
Hum
%
Delta-T
°C
Wind Press
QNH
hPa
Press
MSL
hPa
Rain since
9am
mm
Dir  Spd
km/h
Gust
km/h
Spd
kts
Gust
kts
16/08:00pm 29.0 32.7 23.9 74 3.5 WNW 11 19 6 10 1006.5 1005.7 0.0
16/07:30pm 29.3 32.3 23.3 70 4.1 WNW 13 26 7 14 1006.1 1005.3 0.0
16/07:00pm 30.1 32.2 22.5 63 5.2 WNW 15 28 8 15 1006.0 1005.2 0.0
16/06:30pm 31.2 33.0 21.9 57 6.3 WNW 15 24 8 13 1005.6 1004.8 0.0
16/06:00pm 32.4 34.5 22.5 56 6.8 WNW 15 26 8 14 1005.1 1004.3 0.0
16/05:30pm 33.1 35.0 22.8 54 7.1 NW 17 24 9 13 1005.1 1004.3 0.0
16/05:00pm 33.7 35.8 23.1 54 7.4 WNW 17 24 9 13 1005.2 1004.4 0.0
16/04:30pm 33.9 36.3 23.0 53 7.6 WNW 15 24 8 13 1005.1 1004.3 0.0
16/04:00pm 33.9 36.5 23.3 54 7.4 WNW 15 22 8 12 1005.3 1004.5 0.0
16/03:30pm 34.2 36.9 22.9 51 7.8 NW 13 24 7 13 1005.3 1004.5 0.0
16/03:00pm 34.1 36.8 23.5 54 7.4 WNW 15 24 8 13 1005.7 1004.9 0.0
16/02:30pm 34.9 38.2 24.5 54 7.4 NW 15 22 8 12 1005.9 1005.1 0.0
16/02:00pm 33.9 36.5 22.7 52 7.7 WNW 13 22 7 12 1006.0 1005.2 0.0
16/01:30pm 34.6 37.6 22.6 49 8.3 W 11 20 6 11 1006.2 1005.4 0.0
16/01:00pm 33.8 36.8 22.6 52 7.7 WNW 11 19 6 10 1006.7 1005.9 0.0
16/12:30pm 33.7 37.3 23.7 56 7.0 WNW 11 19 6 10 1007.4 1006.6 0.0
16/12:00pm 33.2 36.5 23.2 55 7.0 W 11 22 6 12 1007.6 1006.8 0.0
16/11:30am 32.8 35.7 23.2 57 6.7 W 13 22 7 12 1007.9 1007.1 0.0
16/11:00am 33.0 36.7 23.3 56 6.7 W 9 20 5 11 1007.9 1007.1 0.0
16/10:30am 31.7 35.3 23.0 60 6.0 WSW 9 19 5 10 1008.2 1007.4 0.0
16/10:00am 31.5 35.0 23.6 63 5.5 W 11 20 6 11 1008.1 1007.3 0.0
16/09:30am 31.1 34.9 24.0 66 5.0 W 11 19 6 10 1008.1 1007.3 0.0
16/09:00am 30.3 34.6 24.9 73 3.8 W 11 17 6 9 1008.2 1007.4 0.0
16/08:30am 29.6 33.7 24.0 72 3.9 WNW 9 15 5 8 1008.4 1007.6 0.0
16/08:00am 28.5 33.9 24.5 79 2.8 W 4 6 2 3 1008.8 1008.0 0.0
16/07:30am 27.4 33.7 24.7 85 1.9 CALM 0 2 0 1 1008.7 1007.9 0.0
16/07:00am 26.2 32.0 24.6 91 1.1 SW 2 2 1 1 1008.8 1008.0 0.0
16/06:30am 25.7 31.0 24.3 92 1.0 WSW 4 6 2 3 1007.8 1007.0 0.0
16/06:00am 25.7 30.5 24.1 91 1.1 NW 6 7 3 4 1007.2 1006.4 0.0
16/05:30am 26.1 30.7 24.1 89 1.4 WNW 7 13 4 7 1006.5 1005.7 0.0
16/05:00am 25.9 30.6 24.3 91 1.1 NW 7 13 4 7 1005.9 1005.1 0.0
16/04:30am 25.8 31.0 24.2 91 1.1 WNW 4 7 2 4 1005.8 1005.0 0.0
16/04:00am 25.9 31.2 24.3 91 1.1 W 4 6 2 3 1005.7 1004.9 0.0
16/03:30am 26.0 30.8 24.2 90 1.2 WNW 6 9 3 5 1005.4 1004.6 0.0
16/03:00am 26.2 31.0 24.2 89 1.4 WNW 6 7 3 4 1005.4 1004.6 0.0
16/02:30am 26.2 31.0 24.2 89 1.4 NW 6 7 3 4 1005.6 1004.8 0.0
16/02:00am 26.3 31.2 24.3 89 1.4 WNW 6 11 3 6 1005.7 1004.9 0.0
16/01:30am 26.5 31.7 24.2 87 1.6 NW 4 6 2 3 1006.4 1005.6 0.0
16/01:00am 26.9 31.9 24.5 87 1.7 SW 6 9 3 5 1007.4 1006.6 0.0
16/12:30am 26.7 31.9 24.2 86 1.7 WNW 4 6 2 3 1007.0 1006.2 0.0
16/12:00am 26.9 32.0 24.0 84 2.0 WNW 4 6 2 3 1006.9 1006.1 0.0
 
Date/Time
CST
Temp
°C
App
Temp
°C
Dew
Point
°C
Rel
Hum
%
Delta-T
°C
Wind Press
QNH
hPa
Press
MSL
hPa
Rain since
9am
mm
Dir  Spd
km/h
Gust
km/h
Spd
kts
Gust
kts
15/11:30pm 27.2 31.8 24.1 83 2.2 W 7 11 4 6 1007.3 1006.5 0.0
15/11:00pm 27.4 32.0 24.1 82 2.3 W 7 11 4 6 1007.0 1006.2 0.0
15/10:30pm 27.6 32.0 23.8 80 2.6 WNW 7 13 4 7 1007.0 1006.2 0.0
15/10:00pm 27.9 32.5 24.1 80 2.6 WNW 7 13 4 7 1006.7 1005.9 0.0
15/09:30pm 28.0 32.5 24.0 79 2.8 NW 7 9 4 5 1006.4 1005.6 0.0
15/09:00pm 28.4 32.5 24.0 77 3.1 WNW 9 13 5 7 1006.0 1005.2 0.0
15/08:30pm 28.8 32.8 23.7 74 3.5 WNW 9 17 5 9 1005.7 1004.9 0.0
15/08:00pm 29.2 33.4 23.4 71 4.0 WNW 7 17 4 9 1005.4 1004.6 0.0
15/07:30pm 29.7 33.1 23.4 69 4.4 WNW 11 17 6 9 1005.1 1004.3 0.0
15/07:00pm 30.3 32.6 23.5 67 4.7 WNW 17 30 9 16 1004.3 1003.5 0.0
15/06:30pm 31.1 33.1 24.0 66 5.0 WNW 20 32 11 17 1004.3 1003.5 0.0
15/06:00pm 32.3 35.4 23.5 59 6.1 WNW 13 22 7 12 1004.1 1003.3 0.0
15/05:30pm 32.9 35.8 23.8 58 6.4 WNW 15 24 8 13 1004.0 1003.2 0.0
15/05:00pm 33.5 36.4 23.8 57 6.8 WNW 15 24 8 13 1003.8 1003.0 0.0
15/04:30pm 33.8 36.7 23.8 56 7.0 WNW 15 22 8 12 1003.9 1003.1 0.0
15/04:00pm 33.9 36.8 23.9 56 7.0 W 15 22 8 12 1003.8 1003.0 0.0
15/03:30pm 34.8 38.2 24.7 55 7.2 W 15 20 8 11 1004.0 1003.2 0.0
15/03:00pm 33.2 36.8 24.4 60 6.2 W 13 24 7 13 1004.2 1003.4 0.0
15/02:30pm 33.7 37.7 23.7 56 7.0 WNW 9 17 5 9 1004.6 1003.8 0.0
15/02:00pm 33.7 36.9 23.1 54 7.4 NW 11 17 6 9 1004.9 1004.1 0.0
15/01:30pm 34.6 37.2 22.6 49 8.3 WNW 13 19 7 10 1005.2 1004.4 0.0
15/01:00pm 33.2 36.1 23.2 55 6.9 W 13 22 7 12 1005.6 1004.8 0.0
15/12:30pm 33.4 36.6 23.7 56 6.8 WNW 13 20 7 11 1006.1 1005.3 0.0
15/12:00pm 33.8 37.6 24.1 57 6.8 W 11 19 6 10 1006.5 1005.7 0.0
15/11:30am 33.0 36.7 23.9 59 6.4 W 11 19 6 10 1006.8 1006.0 0.0
15/11:00am 32.5 36.1 24.3 62 5.8 W 13 19 7 10 1007.5 1006.7 0.0
15/10:30am 31.2 34.3 24.1 66 5.0 W 15 24 8 13 1007.6 1006.8 0.0
15/10:00am 31.5 35.2 24.6 67 4.9 W 13 24 7 13 1007.6 1006.8 0.0
15/09:30am 30.6 34.3 25.2 73 3.8 W 15 26 8 14 1007.6 1006.8 0.0
15/09:00am 30.2 34.5 25.5 76 3.3 W 13 20 7 11 1007.5 1006.7 0.0
15/08:30am 29.4 34.4 25.4 79 2.8 W 9 17 5 9 1007.5 1006.7 0.0
15/08:00am 28.5 33.7 25.1 82 2.4 W 7 11 4 6 1007.0 1006.2 0.0
15/07:30am 27.9 33.7 25.7 88 1.6 WNW 6 9 3 5 1006.7 1005.9 0.0
15/07:00am 26.6 32.5 25.4 93 0.8 WNW 4 7 2 4 1006.6 1005.8 0.0
15/06:30am 26.0 31.6 24.8 93 0.8 W 4 6 2 3 1006.2 1005.4 0.0
15/06:00am 26.1 31.6 24.7 92 1.0 WNW 4 7 2 4 1005.5 1004.7 0.0
15/05:30am 26.2 31.4 24.8 92 1.0 WNW 6 9 3 5 1005.1 1004.3 0.0
15/05:00am 26.3 31.2 24.7 91 1.1 WNW 7 9 4 5 1004.8 1004.0 0.0
15/04:30am 26.3 31.2 24.7 91 1.1 WNW 7 13 4 7 1004.9 1004.1 0.0
15/04:00am 26.3 31.4 24.9 92 1.0 WNW 7 13 4 7 1004.8 1004.0 0.0
15/03:30am 26.3 31.4 24.7 91 1.1 WNW 6 9 3 5 1005.1 1004.3 0.0
15/03:00am 26.4 31.4 24.8 91 1.1 WNW 7 9 4 5 1005.2 1004.4 0.0
15/02:30am 26.4 31.3 24.6 90 1.3 WNW 7 11 4 6 1005.2 1004.4 0.0
15/02:00am 26.6 31.1 24.6 89 1.4 WNW 9 13 5 7 1005.3 1004.5 0.0
15/01:30am 26.6 31.1 24.6 89 1.4 WNW 9 13 5 7 1005.6 1004.8 0.0
15/01:00am 26.6 31.1 24.6 89 1.4 WNW 9 15 5 8 1005.8 1005.0 0.0
15/12:30am 26.7 31.1 24.4 87 1.6 WNW 9 15 5 8 1005.8 1005.0 0.0
15/12:00am 26.8 31.5 24.3 86 1.7 WNW 7 13 4 7 1006.1 1005.3 0.0
 
Date/Time
CST
Temp
°C
App
Temp
°C
Dew
Point
°C
Rel
Hum
%
Delta-T
°C
Wind Press
QNH
hPa
Press
MSL
hPa
Rain since
9am
mm
Dir  Spd
km/h
Gust
km/h
Spd
kts
Gust
kts
14/11:30pm 26.9 31.7 24.4 86 1.7 WNW 7 9 4 5 1006.4 1005.6 0.0
14/11:00pm 27.0 32.0 24.5 86 1.7 W 6 7 3 4 1006.5 1005.7 0.0
14/10:30pm 27.3 32.4 24.6 85 1.9 W 6 11 3 6 1006.8 1006.0 0.0
14/10:00pm 27.5 32.4 24.6 84 2.0 WNW 7 13 4 7 1006.7 1005.9 0.0
14/09:30pm 27.6 32.5 24.6 84 2.1 WNW 7 9 4 5 1006.3 1005.5 0.0
14/09:00pm 27.8 32.5 24.0 80 2.6 WNW 6 9 3 5 1006.0 1005.2 0.0
14/08:30pm 28.2 32.6 23.8 77 3.0 WNW 7 11 4 6 1005.6 1004.8 0.0
14/08:00pm 28.6 32.4 23.5 74 3.5 W 9 15 5 8 1005.2 1004.4 0.0
14/07:30pm 29.0 33.7 24.3 76 3.3 WNW 7 13 4 7 1004.7 1003.9 0.0
14/07:00pm 29.6 34.2 24.2 73 3.8 WNW 7 15 4 8 1004.5 1003.7 0.0
14/06:30pm 30.1 33.9 24.0 70 4.3 WNW 11 17 6 9 1004.2 1003.4 0.0
14/06:00pm 30.6 34.2 24.3 69 4.4 WNW 13 19 7 10 1004.0 1003.2 0.0
14/05:30pm 30.9 34.1 24.3 68 4.6 WNW 15 22 8 12 1003.9 1003.1 0.0
14/05:00pm 31.4 34.7 24.5 67 4.8 WNW 15 22 8 12 1003.8 1003.0 0.0
14/04:30pm 32.5 34.8 21.4 52 7.5 W 11 24 6 13 1003.5 1002.7 0.0
14/04:00pm 33.0 34.2 19.8 45 8.8 W 13 19 7 10 1003.5 1002.7 0.0
14/03:30pm 34.0 35.8 21.1 47 8.8 W 13 20 7 11 1003.6 1002.8 0.0
14/03:00pm 34.4 36.6 20.4 44 9.4 W 9 13 5 7 1003.6 1002.8 0.0
14/02:30pm 34.5 36.9 20.8 44 9.3 WSW 9 17 5 9 1003.9 1003.1 0.0
14/02:00pm 34.9 37.5 20.5 43 9.7 WNW 7 13 4 7 1004.3 1003.5 0.0
14/01:30pm 34.4 36.8 19.6 41 9.9 S 6 9 3 5 1004.5 1003.7 0.0
14/01:00pm 34.5 37.1 20.5 44 9.4 WNW 7 15 4 8 1004.6 1003.8 0.0
14/12:30pm 34.0 36.4 20.0 43 9.4 W 7 15 4 8 1005.2 1004.4 0.0
14/12:00pm 33.2 35.4 20.4 47 8.6 WNW 9 13 5 7 1005.6 1004.8 0.0
14/11:30am 32.4 34.8 19.6 46 8.5 W 6 11 3 6 1006.1 1005.3 0.0
14/11:00am 31.8 34.1 20.7 51 7.4 WNW 9 15 5 8 1006.0 1005.2 0.0
14/10:30am 30.9 33.4 20.2 53 7.1 WNW 7 13 4 7 1006.4 1005.6 0.0
14/10:00am 29.6 31.8 20.5 58 6.0 WNW 9 15 5 8 1006.7 1005.9 0.0
14/09:30am 28.2 30.9 20.2 62 5.3 W 6 9 3 5 1006.8 1006.0 0.0
14/09:00am 28.4 31.0 20.4 62 5.3 SW 7 11 4 6 1007.0 1006.2 0.0
14/08:30am 27.8 30.2 20.9 66 4.6 SW 9 15 5 8 1007.2 1006.4 0.0
14/08:00am 26.4 28.7 20.7 71 3.8 SSW 9 17 5 9 1007.0 1006.2 0.0
14/07:30am 25.4 28.5 21.1 77 2.9 WSW 6 7 3 4 1006.9 1006.1 0.0
14/07:00am 24.7 27.9 20.6 78 2.7 SSW 4 7 2 4 1006.2 1005.4 0.0
14/06:30am 24.8 27.3 20.3 76 2.9 S 7 13 4 7 1005.7 1004.9 0.0
14/06:00am 25.4 27.9 20.2 73 3.4 S 7 13 4 7 1005.5 1004.7 0.0
14/05:30am 25.8 27.7 20.6 73 3.4 SSW 11 22 6 12 1005.4 1004.6 0.0
14/05:00am 26.7 29.4 23.4 82 2.3 SSW 15 35 8 19 1005.0 1004.2 0.0
14/04:30am 27.3 32.4 24.9 87 1.7 WNW 7 15 4 8 1003.7 1002.9 0.0
14/04:00am 27.7 31.7 25.1 86 1.8 WNW 13 19 7 10 1003.8 1003.0 0.0
14/03:30am 27.9 30.8 25.1 85 2.0 WNW 19 32 10 17 1004.1 1003.3 0.0
14/03:00am 27.6 30.7 24.8 85 2.0 WNW 17 30 9 16 1004.3 1003.5 0.0
14/02:30am 27.6 31.5 24.8 85 2.0 WNW 13 20 7 11 1004.8 1004.0 0.0
14/02:00am 27.4 31.6 24.7 85 1.9 WNW 11 17 6 9 1005.0 1004.2 0.0
14/01:30am 27.2 31.8 24.7 86 1.7 WNW 9 13 5 7 1005.1 1004.3 0.0
14/01:00am 27.2 32.2 24.5 85 1.9 W 6 9 3 5 1005.5 1004.7 0.0
14/12:30am 27.4 31.7 24.3 83 2.2 W 9 13 5 7 1005.3 1004.5 0.0
14/12:00am 27.6 31.9 24.2 82 2.4 WNW 9 17 5 9 1005.5 1004.7 0.0
 
Date/Time
CST
Temp
°C
App
Temp
°C
Dew
Point
°C
Rel
Hum
%
Delta-T
°C
Wind Press
QNH
hPa
Press
MSL
hPa
Rain since
9am
mm
Dir  Spd
km/h
Gust
km/h
Spd
kts
Gust
kts
13/11:30pm 27.8 32.1 24.2 81 2.5 WNW 9 19 5 10 1006.0 1005.2 0.0
13/11:00pm 27.9 31.8 24.3 81 2.5 W 11 20 6 11 1006.1 1005.3 0.0
13/10:30pm 28.0 31.0 24.0 79 2.8 WNW 15 22 8 12 1006.1 1005.3 0.0
13/10:00pm 28.2 32.2 23.8 77 3.0 WSW 9 17 5 9 1007.2 1006.4 0.0
13/09:30pm 28.4 32.2 23.5 75 3.4 SW 9 15 5 8 1007.3 1006.5 0.0
13/09:00pm 28.6 32.8 23.5 74 3.5 WSW 7 13 4 7 1006.7 1005.9 0.0
13/08:30pm 29.3 33.2 23.0 69 4.3 SW 7 15 4 8 1006.6 1005.8 0.0

Other Formats:

Comma delimited format used in spreadsheet applications
http://www.bom.gov.au/fwo/IDD60801/IDD60801.94125.axf

JavaScript Object Notation format (JSON) in row-major order
http://www.bom.gov.au/fwo/IDD60801/IDD60801.94125.json